Station History

Weather Underground - logo

Station Historical Data
Daily Summary for February 26, 2018 Units:  Metric    English   Both
« Previous Day
Next Day »
Daily Weekly Monthly Yearly Custom
  High: Low: Average:
Temperature: 14.5 °C 0.6 °C 7.6 °C
Dew Point: 6.1 °C -1.4 °C 2 °C
Humidity: 94 % 40 % 72 %
Wind Speed: 14.5 km/h 0 km/h 1.6 km/h
Wind Gust: 14.5 km/h - -
Wind:- - SW
Pressure: 1022.2 hPa 1011.7 hPa -
Precipitation: 5.84 mm    
Historical Graphs
 
 
Tabular Data for February 26, 2018
Time Temperature Dew Point Pressure Wind Wind Speed Wind Gust Humidity Rainfall Rate (Hourly)
00:02 3.4 °C 0.4 °C 1022.2 hPa Calm     81 % 0 mm
00:08 3.4 °C 0.4 °C 1022.2 hPa Calm     81 % 0 mm
00:13 3.3 °C 0.3 °C 1022.2 hPa Calm     81 % 0 mm
00:18 3.1 °C 0.1 °C 1022.2 hPa Calm     81 % 0 mm
00:23 2.9 °C 0.1 °C 1022.2 hPa Calm     82 % 0 mm
00:28 2.8 °C -0.2 °C 1022.2 hPa Calm     81 % 0 mm
00:33 2.7 °C 0.1 °C 1022.2 hPa Calm     83 % 0 mm
00:38 2.6 °C 0 °C 1021.9 hPa Calm     83 % 0 mm
00:43 2.6 °C 0.2 °C 1021.9 hPa Calm     84 % 0 mm
00:48 2.5 °C -0.1 °C 1021.9 hPa Calm     83 % 0 mm
00:53 2.4 °C -0.1 °C 1021.9 hPa Calm     84 % 0 mm
00:58 2.3 °C -0.3 °C 1021.9 hPa Calm     83 % 0 mm
01:03 2.2 °C -0.2 °C 1021.9 hPa Calm     84 % 0 mm
01:08 2.2 °C -0.3 °C 1021.9 hPa Calm     84 % 0 mm
01:13 2.1 °C -0.2 °C 1021.9 hPa Calm     85 % 0 mm
01:18 2.1 °C -0.2 °C 1021.6 hPa Calm     85 % 0 mm
01:23 2.4 °C 0.2 °C 1021.9 hPa Calm     85 % 0 mm
01:28 2.6 °C 0.2 °C 1021.9 hPa Calm     84 % 0 mm
01:33 2.6 °C 0 °C 1021.6 hPa Calm     83 % 0 mm
01:38 2.4 °C -0.3 °C 1021.6 hPa Calm     82 % 0 mm
01:43 2.3 °C -0.3 °C 1021.6 hPa Calm     83 % 0 mm
01:48 2.2 °C -0.2 °C 1021.6 hPa Calm     84 % 0 mm
01:53 2.2 °C -0.3 °C 1021.6 hPa Calm     84 % 0 mm
01:58 2.1 °C -0.3 °C 1021.2 hPa Calm     84 % 0 mm
02:03 2 °C -0.3 °C 1021.2 hPa Calm     85 % 0 mm
02:08 1.9 °C -0.3 °C 1021.2 hPa Calm     85 % 0 mm
02:13 1.8 °C -0.6 °C 1021.2 hPa Calm     84 % 0 mm
02:18 1.6 °C -0.8 °C 1021.2 hPa Calm     84 % 0 mm
02:23 1.4 °C -1.2 °C 1020.9 hPa Calm     83 % 0 mm
02:28 1.2 °C -1.2 °C 1020.9 hPa Calm     84 % 0 mm
02:33 1 °C -1.2 °C 1020.9 hPa Calm     85 % 0 mm
02:38 1.1 °C -1 °C 1020.9 hPa Calm     86 % 0 mm
02:43 1.1 °C -0.9 °C 1020.9 hPa Calm     86 % 0 mm
02:48 1.1 °C -1 °C 1020.9 hPa Calm     86 % 0 mm
02:53 1.1 °C -0.9 °C 1020.5 hPa Calm     86 % 0 mm
02:58 1.1 °C -0.9 °C 1020.5 hPa Calm     86 % 0 mm
03:03 1.1 °C -0.9 °C 1020.5 hPa Calm     86 % 0 mm
03:08 1 °C -1.1 °C 1020.5 hPa Calm     86 % 0 mm
03:14 0.9 °C -1 °C 1020.5 hPa Calm     87 % 0 mm
03:19 0.9 °C -1.2 °C 1020.5 hPa Calm     86 % 0 mm
03:24 0.8 °C -1.2 °C 1020.5 hPa Calm     87 % 0 mm
03:29 0.7 °C -1.2 °C 1020.5 hPa Calm     87 % 0 mm
03:34 0.7 °C -1.1 °C 1020.2 hPa Calm     88 % 0 mm
03:39 0.9 °C -1.1 °C 1020.2 hPa Calm     87 % 0 mm
03:44 0.8 °C -1.1 °C 1020.2 hPa Calm     87 % 0 mm
03:49 0.8 °C -1.1 °C 1020.2 hPa Calm     87 % 0 mm
03:54 0.8 °C -1.2 °C 1019.9 hPa Calm     87 % 0 mm
03:59 0.8 °C -0.9 °C 1019.9 hPa Calm     88 % 0 mm
04:04 0.9 °C -1 °C 1019.9 hPa Calm     87 % 0 mm
04:09 1 °C -0.9 °C 1019.9 hPa Calm     87 % 0 mm
04:14 1 °C -0.9 °C 1019.9 hPa Calm     87 % 0 mm
04:19 1.1 °C -0.8 °C 1019.9 hPa Calm     87 % 0 mm
04:24 1.3 °C -0.7 °C 1019.9 hPa Calm     87 % 0 mm
04:29 1.3 °C -0.8 °C 1019.9 hPa Calm     86 % 0 mm
04:34 1.3 °C -0.8 °C 1019.9 hPa Calm     86 % 0 mm
04:39 1.2 °C -0.9 °C 1019.5 hPa Calm     86 % 0 mm
04:44 1.2 °C -0.9 °C 1019.5 hPa Calm     86 % 0 mm
04:49 1.1 °C -0.9 °C 1019.5 hPa Calm     86 % 0 mm
04:54 1.2 °C -0.8 °C 1019.5 hPa Calm     87 % 0 mm
04:59 1.2 °C -0.9 °C 1019.5 hPa Calm     86 % 0 mm
05:04 1.2 °C -0.9 °C 1019.5 hPa Calm     86 % 0 mm
05:09 1.2 °C -0.8 °C 1019.2 hPa Calm     87 % 0 mm
05:14 1.2 °C -0.8 °C 1019.2 hPa Calm     87 % 0 mm
05:19 1.2 °C -0.8 °C 1019.2 hPa Calm     87 % 0 mm
05:24 1.2 °C -0.7 °C 1019.2 hPa Calm     87 % 0 mm
05:29 1.3 °C -0.6 °C 1019.2 hPa Calm     87 % 0 mm
05:34 1.2 °C -0.9 °C 1019.2 hPa Calm     86 % 0 mm
05:39 1 °C -1.1 °C 1019.2 hPa Calm     86 % 0 mm
05:44 0.9 °C -1.2 °C 1019.2 hPa Calm     86 % 0 mm
05:49 0.7 °C -1.3 °C 1019.2 hPa Calm     86 % 0 mm
05:54 0.6 °C -1.4 °C 1018.8 hPa Calm     86 % 0 mm
05:59 0.6 °C -1.3 °C 1019.2 hPa Calm     87 % 0 mm
06:04 0.6 °C -1.3 °C 1019.2 hPa Calm     87 % 0 mm
06:09 0.6 °C -1.2 °C 1018.8 hPa Calm     88 % 0 mm
06:14 0.7 °C -1.1 °C 1019.2 hPa Calm     88 % 0 mm
06:19 0.6 °C -1.3 °C 1019.2 hPa Calm     87 % 0 mm
06:24 0.7 °C -1.1 °C 1019.2 hPa Calm     88 % 0 mm
06:29 0.7 °C -1.1 °C 1019.2 hPa Calm     88 % 0 mm
06:30 0.7 °C -1.1 °C 1019.2 hPa Calm     88 % 0 mm
06:35 0.8 °C -0.9 °C 1019.2 hPa Calm     88 % 0 mm
06:40 0.9 °C -0.9 °C 1019.2 hPa Calm     88 % 0 mm
06:45 1.1 °C -0.7 °C 1019.2 hPa Calm     88 % 0 mm
06:50 1.1 °C -0.8 °C 1019.2 hPa Calm     87 % 0 mm
06:55 1.2 °C -0.6 °C 1019.2 hPa Calm     88 % 0 mm
07:00 1.4 °C -0.3 °C 1019.2 hPa Calm     88 % 0 mm
07:05 1.8 °C -0.2 °C 1019.2 hPa Calm     87 % 0 mm
07:10 2 °C 0.1 °C 1019.2 hPa Calm     87 % 0 mm
07:15 2.2 °C 0.3 °C 1019.2 hPa SSE 1.9 km/h 1.9 km/h 87 % 0 mm
07:20 2.3 °C 0.2 °C 1019.2 hPa Calm     86 % 0 mm
07:25 2.4 °C 0.5 °C 1019.5 hPa Calm     87 % 0 mm
07:30 2.6 °C 0.4 °C 1019.2 hPa Calm     86 % 0 mm
07:35 2.7 °C 0.6 °C 1019.5 hPa Calm     86 % 0 mm
07:40 2.9 °C 0.8 °C 1019.5 hPa Calm     86 % 0 mm
07:45 3.3 °C 1.2 °C 1019.2 hPa Calm     86 % 0 mm
07:50 3.8 °C 1 °C 1019.2 hPa Calm     82 % 0 mm
07:55 4.1 °C 1.3 °C 1019.2 hPa Calm     82 % 0 mm
08:00 4.5 °C 1.7 °C 1019.2 hPa Calm     82 % 0 mm
08:05 5.1 °C 2.1 °C 1019.2 hPa Calm     81 % 0 mm
08:10 5.6 °C 2.2 °C 1019.2 hPa ESE 1.9 km/h   79 % 0 mm
08:15 6.1 °C 2.4 °C 1019.2 hPa Calm     77 % 0 mm
08:20 6.8 °C 2.8 °C 1019.2 hPa Calm     76 % 0 mm
08:25 7.4 °C 2.7 °C 1018.8 hPa SSE 3.7 km/h   72 % 0 mm
08:30 7.9 °C 2.8 °C 1018.8 hPa Calm     70 % 0 mm
08:35 8.2 °C 2.4 °C 1018.8 hPa SE 1.9 km/h 1.9 km/h 67 % 0 mm
08:40 8.3 °C 2.5 °C 1018.8 hPa SE 1.9 km/h   67 % 0 mm
08:45 8.4 °C 2.4 °C 1018.8 hPa South 1.9 km/h 1.9 km/h 66 % 0 mm
08:50 8.7 °C 2.2 °C 1018.8 hPa SE 3.7 km/h 3.7 km/h 64 % 0 mm
08:55 8.9 °C 2.1 °C 1018.5 hPa SSE 3.7 km/h 3.7 km/h 62 % 0 mm
09:00 9.3 °C 1.9 °C 1018.5 hPa South 3.7 km/h 3.7 km/h 60 % 0 mm
09:05 9.6 °C 2.2 °C 1018.5 hPa SSE 1.9 km/h   60 % 0 mm
09:10 10 °C 2.6 °C 1018.5 hPa SSE 1.9 km/h   60 % 0 mm
09:15 10.2 °C 2.3 °C 1018.5 hPa SSE 3.7 km/h 3.7 km/h 58 % 0 mm
09:20 10.5 °C 2.3 °C 1018.2 hPa SE 1.9 km/h 1.9 km/h 57 % 0 mm
09:25 10.7 °C 2.2 °C 1018.2 hPa SE 3.7 km/h 3.7 km/h 56 % 0 mm
09:30 10.8 °C 2.4 °C 1018.2 hPa SSE 3.7 km/h   56 % 0 mm
09:35 10.9 °C 2.4 °C 1018.2 hPa Calm   1 km/h 56 % 0 mm
09:40 11.1 °C 2.6 °C 1018.2 hPa Calm   1 km/h 56 % 0 mm
09:45 11.3 °C 3.1 °C 1017.8 hPa SSE 3.7 km/h   57 % 0 mm
09:50 11.7 °C 2.9 °C 1017.8 hPa NNW 3.7 km/h 3.7 km/h 55 % 0 mm
09:55 11.8 °C 3.1 °C 1017.8 hPa East 3.7 km/h 3.7 km/h 55 % 0 mm
10:00 12.1 °C 3.3 °C 1017.8 hPa Calm     55 % 0 mm
10:05 12.4 °C 3.1 °C 1017.8 hPa ESE 1.9 km/h 1.9 km/h 53 % 0 mm
10:11 12.6 °C 2.7 °C 1017.8 hPa WNW 3.2 km/h 3.2 km/h 51 % 0 mm
10:16 12.5 °C 3.2 °C 1017.5 hPa SSW 3.7 km/h 3.7 km/h 53 % 0 mm
10:21 12.7 °C 3.3 °C 1017.5 hPa Calm     53 % 0 mm
10:26 13.2 °C 3.2 °C 1017.5 hPa SW 1.9 km/h   51 % 0 mm
10:31 13.2 °C 2.9 °C 1017.5 hPa SSE 1.9 km/h 1.9 km/h 50 % 0 mm
10:36 13.4 °C 3.2 °C 1017.5 hPa Calm     50 % 0 mm
10:41 13.7 °C 2.8 °C 1017.2 hPa West 3.7 km/h 3.7 km/h 48 % 0 mm
10:46 14 °C 2.6 °C 1017.2 hPa WNW 3.7 km/h 3.7 km/h 46 % 0 mm
10:51 13.8 °C 2.9 °C 1017.2 hPa SSW 3.7 km/h 3.7 km/h 48 % 0 mm
10:56 14.3 °C 3.1 °C 1016.8 hPa SSE 1.9 km/h 1.9 km/h 47 % 0 mm
11:01 14.3 °C 3.2 °C 1016.8 hPa SE 5.6 km/h 5.6 km/h 47 % 0 mm
11:06 14.3 °C 2.8 °C 1016.8 hPa SE 3.7 km/h 3.7 km/h 46 % 0 mm
11:11 14.4 °C 3.3 °C 1016.8 hPa SSE 3.7 km/h 3.7 km/h 47 % 0 mm
11:16 14.3 °C 2.2 °C 1016.8 hPa NNE 3.7 km/h 3.7 km/h 44 % 0 mm
11:21 14.3 °C 2.5 °C 1016.8 hPa SE 3.7 km/h 3.7 km/h 45 % 0 mm
11:26 14.5 °C 3 °C 1016.5 hPa NNW 3.2 km/h 3.2 km/h 46 % 0 mm
11:31 14.5 °C 2.7 °C 1016.5 hPa SSE 1.9 km/h 1.9 km/h 45 % 0 mm
11:36 14.3 °C 2.6 °C 1016.1 hPa Calm     45 % 0 mm
11:41 14.4 °C 2.6 °C 1016.1 hPa ESE 1.9 km/h 1.9 km/h 45 % 0 mm
11:46 14.4 °C 2.3 °C 1016.1 hPa NNW 1.9 km/h 1.9 km/h 44 % 0 mm
11:51 14.3 °C 2.5 °C 1016.1 hPa SE 3.7 km/h 3.7 km/h 45 % 0 mm
11:56 14.2 °C 1.8 °C 1015.8 hPa NW 3.7 km/h 3.7 km/h 43 % 0 mm
12:01 13.9 °C 2.2 °C 1015.8 hPa Calm     45 % 0 mm
12:06 13.9 °C 1.8 °C 1015.8 hPa NW 5.6 km/h 5.6 km/h 44 % 0 mm
12:11 14.1 °C 1.7 °C 1015.5 hPa NNW 1.9 km/h 1.9 km/h 43 % 0 mm
12:16 14.2 °C 2.1 °C 1015.5 hPa South 1.9 km/h   44 % 0 mm
12:21 14.4 °C 1.9 °C 1015.1 hPa Calm     43 % 0 mm
12:26 14.5 °C 1.7 °C 1015.1 hPa NNW 1.9 km/h 1.9 km/h 42 % 0 mm
12:31 14.3 °C 1.5 °C 1015.1 hPa NW 3.7 km/h 3.7 km/h 42 % 0 mm
12:36 14.1 °C 1.7 °C 1014.8 hPa NW 1.9 km/h   43 % 0 mm
12:41 14.1 °C 1.4 °C 1014.8 hPa NW 3.7 km/h 3.7 km/h 42 % 0 mm
12:46 14.1 °C 1.4 °C 1014.8 hPa NW 3.7 km/h 3.7 km/h 42 % 0 mm
12:51 14.1 °C 1.3 °C 1014.8 hPa WNW 1.9 km/h 1.9 km/h 42 % 0 mm
12:56 14 °C 0.6 °C 1014.4 hPa WSW 1.9 km/h   40 % 0 mm
13:01 13.9 °C 0.9 °C 1014.4 hPa Calm     41 % 0 mm
13:06 13.9 °C 0.8 °C 1014.4 hPa Calm     41 % 0 mm
13:11 13.9 °C 1.2 °C 1014.1 hPa Calm     42 % 0 mm
13:16 14 °C 1.3 °C 1014.1 hPa Calm     42 % 0 mm
13:21 14.1 °C 1.7 °C 1014.1 hPa Calm     43 % 0 mm
13:26 13.9 °C 0.9 °C 1014.1 hPa Calm     41 % 0 mm
13:32 13.8 °C 1.1 °C 1014.1 hPa NW 1.9 km/h   42 % 0 mm
13:37 13.7 °C 0.7 °C 1013.8 hPa Calm     41 % 0 mm
13:42 13.8 °C 0.7 °C 1013.8 hPa Calm     41 % 0 mm
13:46 13.8 °C 0.7 °C 1013.8 hPa WNW 1.9 km/h 1.9 km/h 41 % 0 mm
13:51 13.8 °C 0.7 °C 1013.8 hPa WNW 1.9 km/h 1.9 km/h 41 % 0 mm
13:57 13.7 °C 0.7 °C 1013.8 hPa Calm     41 % 0 mm
14:02 13.7 °C 0.7 °C 1013.4 hPa West 1.9 km/h 1.9 km/h 41 % 0 mm
14:07 13.6 °C 0.6 °C 1013.4 hPa Calm     41 % 0 mm
14:12 13.6 °C 0.9 °C 1013.4 hPa NW 1.9 km/h 1.9 km/h 42 % 0 mm
14:17 13.6 °C 0.9 °C 1013.4 hPa Calm     42 % 0 mm
14:22 13.6 °C 1.3 °C 1013.4 hPa WNW 1.9 km/h 1.9 km/h 43 % 0 mm
14:27 13.6 °C 0.9 °C 1013.4 hPa NNW 3.7 km/h 3.7 km/h 42 % 0 mm
14:32 13.5 °C 1.2 °C 1013.1 hPa NW 1.9 km/h 1.9 km/h 43 % 0 mm
14:37 13.4 °C 1.1 °C 1013.1 hPa Calm     43 % 0 mm
14:42 13.4 °C 0.8 °C 1013.1 hPa Calm     42 % 0 mm
14:47 13.4 °C 0.8 °C 1013.1 hPa Calm     42 % 0 mm
14:52 13.5 °C 1.2 °C 1013.1 hPa North 1.9 km/h 1.9 km/h 43 % 0 mm
14:57 13.5 °C 0.8 °C 1013.1 hPa NW 1.9 km/h 1.9 km/h 42 % 0 mm
15:02 13.5 °C 0.5 °C 1013.1 hPa Calm     41 % 0 mm
15:07 13.5 °C 0.5 °C 1012.8 hPa West 1.9 km/h 1.9 km/h 41 % 0 mm
15:12 13.5 °C 0.8 °C 1012.8 hPa Calm     42 % 0 mm
15:17 13.5 °C 0.8 °C 1012.8 hPa NW 1.9 km/h 1.9 km/h 42 % 0 mm
15:22 13.5 °C 0.5 °C 1012.8 hPa NNW 1.9 km/h   41 % 0 mm
15:27 13.6 °C 0.9 °C 1012.8 hPa NW 1.9 km/h 1.9 km/h 42 % 0 mm
15:32 13.5 °C 0.5 °C 1012.8 hPa Calm     41 % 0 mm
15:37 13.5 °C 0.8 °C 1012.8 hPa Calm     42 % 0 mm
15:42 13.4 °C 0.8 °C 1012.4 hPa Calm     42 % 0 mm
15:47 13.4 °C 1.1 °C 1012.4 hPa NW 1.9 km/h 1.9 km/h 43 % 0 mm
15:52 13.3 °C 1.3 °C 1012.4 hPa NW 1.9 km/h 1.9 km/h 44 % 0 mm
15:57 13.3 °C 0.9 °C 1012.4 hPa WNW 3.7 km/h 3.7 km/h 43 % 0 mm
16:02 13.2 °C 1.2 °C 1012.4 hPa NW 1.9 km/h 1.9 km/h 44 % 0 mm
16:07 13.2 °C 1.2 °C 1012.4 hPa NW 1.6 km/h 1.6 km/h 44 % 0 mm
16:12 13.2 °C 1.6 °C 1012.1 hPa NW 1.6 km/h 1.6 km/h 45 % 0 mm
16:17 13.1 °C 1.4 °C 1012.1 hPa NW 3.7 km/h 3.7 km/h 45 % 0 mm
16:22 13.1 °C 1.4 °C 1012.1 hPa NW 3.7 km/h 3.7 km/h 45 % 0 mm
16:27 13 °C 0.7 °C 1012.1 hPa WNW 4.8 km/h 4.8 km/h 43 % 0 mm
16:32 13 °C 1.3 °C 1012.1 hPa West 3.7 km/h 3.7 km/h 45 % 0 mm
16:37 12.9 °C 0.3 °C 1012.1 hPa West 5.6 km/h 5.6 km/h 42 % 0 mm
16:42 12.8 °C 0.2 °C 1012.1 hPa WNW 3.7 km/h 3.7 km/h 42 % 0 mm
16:47 12.8 °C 0.2 °C 1012.1 hPa Calm     42 % 0 mm
16:52 12.7 °C 0.4 °C 1011.7 hPa NW 1.9 km/h 1.9 km/h 43 % 0 mm
16:57 12.7 °C 0.7 °C 1011.7 hPa SSE 1.9 km/h   44 % 0 mm
17:02 12.6 °C 1 °C 1011.7 hPa SSE 1.9 km/h   45 % 0 mm
17:07 12.5 °C 0.9 °C 1012.1 hPa NW 8 km/h 8 km/h 45 % 0 mm
17:12 11.5 °C 4.9 °C 1012.1 hPa NNW 11.1 km/h 11.1 km/h 64 % 0 mm
17:17 10.8 °C 4.9 °C 1012.1 hPa WNW 13 km/h 13 km/h 67 % 0 mm
17:22 10.2 °C 5 °C 1012.1 hPa NW 13 km/h 13 km/h 70 % 0 mm
17:27 9.8 °C 5.2 °C 1012.1 hPa NNW 7.4 km/h 7.4 km/h 73 % 0 mm
17:32 9.5 °C 4.9 °C 1012.1 hPa NW 6.4 km/h 6.4 km/h 73 % 0 mm
17:37 9.3 °C 4.9 °C 1012.1 hPa WNW 7.4 km/h 7.4 km/h 74 % 0 mm
17:42 9.1 °C 4.9 °C 1012.1 hPa NW 5.6 km/h 5.6 km/h 75 % 0 mm
17:47 8.9 °C 4.7 °C 1012.1 hPa NW 9.3 km/h 9.3 km/h 75 % 0 mm
17:52 8.7 °C 4.6 °C 1012.1 hPa NW 13 km/h 13 km/h 75 % 0 mm
17:57 8.6 °C 4.6 °C 1012.1 hPa NW 11.1 km/h 11.1 km/h 76 % 0 mm
18:02 8.6 °C 4.6 °C 1012.1 hPa NW 11.1 km/h 11.1 km/h 76 % 0 mm
18:07 8.6 °C 4.8 °C 1012.1 hPa NW 5.6 km/h 5.6 km/h 77 % 0 mm
18:12 8.5 °C 4.7 °C 1012.1 hPa NW 9.3 km/h 9.3 km/h 77 % 0 mm
18:17 8.4 °C 4.7 °C 1012.1 hPa NW 5.6 km/h 5.6 km/h 77 % 0 mm
18:23 8.4 °C 4.8 °C 1012.1 hPa WSW 14.5 km/h 14.5 km/h 78 % 0 mm
18:28 8.4 °C 4.8 °C 1012.1 hPa NW 11.1 km/h 11.1 km/h 78 % 0 mm
18:33 8.3 °C 4.9 °C 1012.1 hPa WNW 5.6 km/h 5.6 km/h 79 % 0 mm
18:38 8.3 °C 4.8 °C 1012.1 hPa NW 3.7 km/h 3.7 km/h 79 % 0 mm
18:43 8.2 °C 4.8 °C 1012.1 hPa NW 5.6 km/h 5.6 km/h 79 % 0 mm
18:48 8.2 °C 4.8 °C 1012.1 hPa NW 5.6 km/h 5.6 km/h 79 % 0 mm
18:53 8.2 °C 4.7 °C 1012.1 hPa NW 1.9 km/h 1.9 km/h 79 % 0 mm
18:58 8.2 °C 4.7 °C 1012.1 hPa NNW 3.7 km/h 3.7 km/h 79 % 0 mm
19:03 8.1 °C 4.9 °C 1012.1 hPa Calm     80 % 0 mm
19:08 8.1 °C 4.9 °C 1012.1 hPa West 1.6 km/h   80 % 0 mm
19:13 8.1 °C 4.9 °C 1012.1 hPa Calm     80 % 0 mm
19:18 8.1 °C 5 °C 1012.1 hPa WNW 1.9 km/h 1.9 km/h 81 % 0 mm
19:23 8 °C 5.1 °C 1012.1 hPa NW 1.9 km/h 1.9 km/h 82 % 0 mm
19:28 7.9 °C 5.2 °C 1012.1 hPa WNW 1.9 km/h 1.9 km/h 83 % 0 mm
19:33 7.8 °C 5.3 °C 1012.1 hPa Calm     84 % 0 mm
19:38 7.8 °C 5.2 °C 1012.1 hPa Calm     84 % 0 mm
19:43 7.7 °C 5.3 °C 1012.1 hPa Calm     85 % 0 mm
19:48 7.7 °C 5.5 °C 1012.1 hPa WNW 1.6 km/h 1.6 km/h 86 % 0 mm
19:53 7.6 °C 5.4 °C 1012.1 hPa Calm     86 % 0 mm
19:58 7.6 °C 5.6 °C 1012.1 hPa Calm     87 % 0 mm
20:03 7.6 °C 5.7 °C 1012.4 hPa Calm     88 % 0 mm
20:08 7.6 °C 5.7 °C 1012.4 hPa Calm     88 % 0 mm
20:13 7.5 °C 5.7 °C 1012.4 hPa Calm     88 % 0 mm
20:18 7.5 °C 5.8 °C 1012.4 hPa Calm     89 % 0 mm
20:23 7.5 °C 5.8 °C 1012.4 hPa Calm     89 % 0 mm
20:28 7.4 °C 5.7 °C 1012.4 hPa Calm     89 % 0 mm
20:33 7.4 °C 5.9 °C 1012.4 hPa Calm     90 % 0 mm
20:38 7.4 °C 5.8 °C 1012.4 hPa Calm     90 % 0 mm
20:43 7.3 °C 5.8 °C 1012.4 hPa Calm     90 % 0 mm
20:48 7.3 °C 5.8 °C 1012.4 hPa Calm     90 % 0 mm
20:53 7.3 °C 5.8 °C 1012.4 hPa Calm     90 % 0 mm
20:58 7.3 °C 5.8 °C 1012.4 hPa Calm     90 % 0 mm
21:03 7.3 °C 5.8 °C 1012.4 hPa Calm     90 % 0.25 mm
21:08 7.3 °C 5.9 °C 1012.4 hPa Calm     91 % 0.25 mm
21:18 7.3 °C 5.9 °C 1012.4 hPa Calm     91 % 0.51 mm
21:23 7.2 °C 5.8 °C 1012.4 hPa Calm     91 % 0.51 mm
21:28 7.2 °C 5.9 °C 1012.4 hPa Calm     92 % 0.76 mm
21:33 7.2 °C 5.9 °C 1012.4 hPa Calm     92 % 0.76 mm
21:38 7.1 °C 5.9 °C 1012.8 hPa Calm     92 % 0.76 mm
21:43 7.1 °C 5.9 °C 1012.8 hPa Calm     92 % 1.02 mm
21:48 7.1 °C 5.9 °C 1012.8 hPa Calm     92 % 1.02 mm
21:53 7.1 °C 6.1 °C 1012.8 hPa Calm     93 % 1.27 mm
21:58 7.1 °C 6 °C 1012.8 hPa Calm     93 % 1.27 mm
22:03 7.1 °C 6.1 °C 1012.8 hPa Calm     93 % 1.02 mm
22:08 7.1 °C 6 °C 1012.8 hPa SSW 1.9 km/h   93 % 1.27 mm
22:13 7 °C 5.9 °C 1012.8 hPa South 1.9 km/h 1.9 km/h 93 % 1.02 mm
22:18 7 °C 5.9 °C 1012.8 hPa Calm     93 % 1.27 mm
22:24 7 °C 5.9 °C 1012.8 hPa SSE 1.9 km/h   93 % 1.52 mm
22:29 7 °C 5.9 °C 1012.8 hPa SE 5.6 km/h 5.6 km/h 93 % 1.52 mm
22:34 7 °C 6.1 °C 1012.8 hPa SE 1.9 km/h   94 % 2.03 mm
22:39 6.9 °C 6.1 °C 1012.8 hPa SE 5.6 km/h 5.6 km/h 94 % 2.29 mm
22:44 6.8 °C 5.9 °C 1012.8 hPa South 3.7 km/h 3.7 km/h 94 % 2.29 mm
22:49 6.8 °C 5.9 °C 1012.8 hPa SE 5.6 km/h 5.6 km/h 94 % 2.79 mm
22:54 6.7 °C 5.8 °C 1012.8 hPa ESE 3.7 km/h 3.7 km/h 94 % 2.79 mm
22:59 6.7 °C 5.8 °C 1012.8 hPa ESE 3.7 km/h 3.7 km/h 94 % 3.05 mm
23:04 6.7 °C 5.8 °C 1012.8 hPa ESE 1.9 km/h   94 % 3.05 mm
23:09 6.7 °C 5.8 °C 1012.8 hPa ESE 1.9 km/h 1.9 km/h 94 % 3.3 mm
23:14 6.7 °C 5.8 °C 1012.8 hPa ESE 1.9 km/h 1.9 km/h 94 % 3.3 mm
23:19 6.7 °C 5.8 °C 1012.8 hPa ESE 1.9 km/h   94 % 3.3 mm
23:24 6.6 °C 5.7 °C 1012.8 hPa Calm     94 % 3.05 mm
23:29 6.5 °C 5.6 °C 1012.8 hPa ESE 1.9 km/h 1.9 km/h 94 % 2.79 mm
23:34 6.4 °C 5.6 °C 1012.8 hPa ESE 1.9 km/h 1.9 km/h 94 % 2.54 mm
23:39 6.4 °C 5.6 °C 1012.8 hPa ESE 1.9 km/h 1.9 km/h 94 % 2.54 mm
23:44 6.4 °C 5.5 °C 1012.8 hPa ESE 1.9 km/h   94 % 2.03 mm
23:49 6.4 °C 5.5 °C 1012.8 hPa Calm     94 % 2.03 mm
23:54 6.4 °C 5.5 °C 1012.8 hPa ESE 5.6 km/h 5.6 km/h 94 % 1.78 mm
23:59 6.4 °C 5.5 °C 1013.1 hPa Calm     94 % 1.52 mm
Park Place, Exeter, Tulare County, California, USA
Compliments of Weather Underground - 2.75 mb